Time;durP1;ratioP1;P1;durP2;ratioP2;P2;SDS_P1;SDS_P2;PMS_P1;PMS_P2;Temp;Humidity;BMP_temperature;BMP_pressure;BME280_temperature;BME280_humidity;BME280_pressure;Samples;Min_cycle;Max_cycle;Signal;HPM_P1;HPM_P2
2021/07/12 00:01:11;;;;;;;10.50;8.27;;;21.30;99.90;;;;;;5038244;28;20464;-71
2021/07/12 00:03:38;;;;;;;9.77;7.83;;;21.40;99.90;;;;;;5036042;28;20949;-71
2021/07/12 00:06:04;;;;;;;11.60;9.07;;;21.30;99.90;;;;;;5034575;28;20546;-73
2021/07/12 00:08:31;;;;;;;12.60;10.03;;;21.30;99.90;;;;;;5044793;28;20515;-72
2021/07/12 00:10:58;;;;;;;15.80;9.27;;;21.30;99.90;;;;;;5046212;28;20472;-75
2021/07/12 00:13:25;;;;;;;11.37;7.83;;;21.20;99.90;;;;;;5046127;28;20533;-74
2021/07/12 00:15:54;;;;;;;11.07;9.87;;;21.00;99.90;;;;;;5048252;28;20469;-74
2021/07/12 00:18:21;;;;;;;9.73;7.27;;;21.00;99.90;;;;;;5035466;28;20539;-73
2021/07/12 00:20:48;;;;;;;11.57;8.67;;;21.00;99.90;;;;;;5035471;28;20542;-72
2021/07/12 00:23:15;;;;;;;10.90;8.73;;;21.00;99.90;;;;;;5040956;28;20586;-75
2021/07/12 00:25:42;;;;;;;27.57;9.00;;;21.10;99.90;;;;;;5034314;28;21007;-72
2021/07/12 00:28:09;;;;;;;13.50;9.80;;;21.10;99.90;;;;;;5037735;28;20487;-71
2021/07/12 00:30:36;;;;;;;12.50;8.73;;;21.10;99.90;;;;;;5038727;28;20452;-73
2021/07/12 00:33:04;;;;;;;12.27;8.50;;;21.10;99.90;;;;;;5038664;28;20487;-75
2021/07/12 00:35:31;;;;;;;13.37;8.87;;;21.00;99.90;;;;;;5040211;28;20458;-76
2021/07/12 00:37:58;;;;;;;13.07;9.13;;;21.10;99.90;;;;;;5038502;28;20454;-72
2021/07/12 00:40:28;;;;;;;11.40;8.70;;;20.90;99.90;;;;;;5037271;28;20606;-71
2021/07/12 00:42:55;;;;;;;10.90;8.73;;;20.90;99.90;;;;;;5033319;28;20511;-70
2021/07/12 00:45:25;;;;;;;11.73;9.43;;;20.90;99.90;;;;;;5039607;28;21398;-72
2021/07/12 00:47:54;;;;;;;15.47;9.33;;;20.90;99.90;;;;;;5041631;28;20476;-71
2021/07/12 00:50:24;;;;;;;12.87;9.93;;;20.70;99.90;;;;;;5039982;28;20523;-70
2021/07/12 00:52:52;;;;;;;13.80;9.37;;;20.70;99.90;;;;;;5033649;28;20507;-70
2021/07/12 00:55:23;;;;;;;12.70;9.00;;;20.40;99.90;;;;;;5040421;28;20479;-71
2021/07/12 00:57:50;;;;;;;13.80;9.13;;;20.40;99.90;;;;;;5039129;28;20476;-71
2021/07/12 01:00:19;;;;;;;12.27;9.20;;;20.50;99.90;;;;;;5040792;28;20537;-70
2021/07/12 01:02:47;;;;;;;11.60;8.97;;;20.60;99.90;;;;;;5034100;28;20476;-74
2021/07/12 01:05:17;;;;;;;16.67;10.23;;;20.60;99.90;;;;;;5038954;28;20484;-72
2021/07/12 01:07:47;;;;;;;15.83;10.90;;;20.80;99.90;;;;;;5041314;28;20530;-73
2021/07/12 01:10:17;;;;;;;12.10;9.77;;;20.80;99.90;;;;;;5036997;28;20558;-73
2021/07/12 01:12:51;;;;;;;12.43;10.03;;;20.60;99.90;;;;;;5034431;28;20487;-72
2021/07/12 01:15:21;;;;;;;16.87;11.17;;;20.30;99.90;;;;;;5036396;28;21085;-71
2021/07/12 01:17:58;;;;;;;13.50;9.50;;;20.30;99.90;;;;;;5043392;28;20440;-71
2021/07/12 01:20:59;;;;;;;12.33;10.00;;;20.30;99.90;;;;;;5038559;28;20479;-73
2021/07/12 01:23:39;;;;;;;15.23;11.10;;;20.30;99.90;;;;;;5041030;28;20491;-71
2021/07/12 01:26:50;;;;;;;19.30;10.40;;;20.30;99.90;;;;;;5036200;28;20520;-72
2021/07/12 01:29:23;;;;;;;13.20;10.37;;;20.30;99.90;;;;;;5045063;28;20515;-75
2021/07/12 01:32:24;;;;;;;10.23;8.07;;;20.30;99.90;;;;;;5037587;28;20586;-72
2021/07/12 01:35:01;;;;;;;18.63;11.17;;;20.40;99.90;;;;;;5031359;28;20547;-71
2021/07/12 01:37:36;;;;;;;12.80;9.60;;;20.30;99.90;;;;;;5036789;28;20439;-71
2021/07/12 01:40:07;;;;;;;14.83;9.90;;;20.20;99.90;;;;;;5043470;28;20448;-71
2021/07/12 01:42:40;;;;;;;16.67;12.00;;;20.30;99.90;;;;;;5043059;28;20496;-76
2021/07/12 01:45:11;;;;;;;14.53;10.30;;;20.40;99.90;;;;;;5039679;28;22931;-73
2021/07/12 01:47:46;;;;;;;17.20;12.37;;;20.40;99.90;;;;;;5041291;28;20488;-72
2021/07/12 01:50:27;;;;;;;15.10;9.77;;;20.40;99.90;;;;;;5038608;28;20549;-71
2021/07/12 01:53:08;;;;;;;11.63;9.93;;;20.30;99.90;;;;;;5039759;28;20679;-72
2021/07/12 01:55:43;;;;;;;15.40;11.83;;;20.30;99.90;;;;;;5041850;28;20464;-73
2021/07/12 01:58:14;;;;;;;14.80;11.57;;;20.30;99.90;;;;;;5037860;28;20443;-71
2021/07/12 02:00:46;;;;;;;14.80;12.77;;;20.30;99.90;;;;;;5043812;28;20792;-71
2021/07/12 02:03:15;;;;;;;15.00;11.13;;;20.20;99.90;;;;;;5037441;28;20557;-71
2021/07/12 02:05:45;;;;;;;16.27;10.03;;;20.20;99.90;;;;;;5042753;28;20506;-72
2021/07/12 02:08:15;;;;;;;14.67;11.10;;;20.20;99.90;;;;;;5039866;28;20479;-71
2021/07/12 02:10:45;;;;;;;11.60;9.53;;;20.10;99.90;;;;;;5038973;28;20550;-70
2021/07/12 02:13:13;;;;;;;16.17;11.23;;;20.10;99.90;;;;;;5038778;28;20562;-70
2021/07/12 02:15:41;;;;;;;16.53;10.10;;;20.00;99.90;;;;;;5039177;28;20478;-70
2021/07/12 02:18:09;;;;;;;13.50;10.00;;;20.00;99.90;;;;;;5041504;28;20510;-73
2021/07/12 02:20:38;;;;;;;14.77;9.87;;;20.00;99.90;;;;;;5041543;28;20530;-71
2021/07/12 02:23:08;;;;;;;16.97;10.97;;;19.80;99.90;;;;;;5038232;28;20479;-71
2021/07/12 02:25:35;;;;;;;20.00;11.43;;;19.70;99.90;;;;;;5037369;28;20492;-71
2021/07/12 02:28:04;;;;;;;14.33;11.87;;;19.60;99.90;;;;;;5062742;28;20449;-74
2021/07/12 02:30:31;;;;;;;17.03;12.00;;;19.50;99.90;;;;;;5036078;28;20932;-70
2021/07/12 02:32:59;;;;;;;12.70;10.00;;;19.60;99.90;;;;;;5038337;28;20486;-71
2021/07/12 02:35:27;;;;;;;17.10;11.17;;;19.50;99.90;;;;;;5038593;28;20546;-73
2021/07/12 02:37:55;;;;;;;18.57;12.03;;;19.50;99.90;;;;;;5038951;28;20551;-71
2021/07/12 02:40:24;;;;;;;19.70;13.57;;;19.60;99.90;;;;;;5042044;28;20524;-71
2021/07/12 02:42:54;;;;;;;19.03;12.77;;;19.60;99.90;;;;;;5038786;28;20482;-73
2021/07/12 02:45:24;;;;;;;15.73;11.93;;;19.50;99.90;;;;;;5041161;28;20480;-71
2021/07/12 02:47:52;;;;;;;17.23;10.90;;;19.40;99.90;;;;;;5044153;28;20530;-71
2021/07/12 02:50:20;;;;;;;18.37;13.13;;;19.40;99.90;;;;;;5040406;28;20963;-71
2021/07/12 02:52:53;;;;;;;15.17;12.57;;;19.30;99.90;;;;;;5036557;28;21134;-71
2021/07/12 02:55:20;;;;;;;15.87;12.13;;;19.30;99.90;;;;;;5038439;28;20525;-70
2021/07/12 02:57:48;;;;;;;18.23;12.90;;;19.30;99.90;;;;;;5034409;28;20553;-70
2021/07/12 03:00:16;;;;;;;49.87;27.90;;;19.30;99.90;;;;;;5037496;28;20534;-70
2021/07/12 03:02:43;;;;;;;23.23;13.43;;;19.30;99.90;;;;;;5039883;28;20482;-71
2021/07/12 03:05:12;;;;;;;16.57;12.03;;;19.20;99.90;;;;;;5045893;28;20538;-74
2021/07/12 03:07:48;;;;;;;18.87;12.40;;;19.20;99.90;;;;;;5038857;28;20451;-73
2021/07/12 03:10:18;;;;;;;17.73;12.03;;;19.20;99.90;;;;;;5050239;28;20915;-75
2021/07/12 03:12:50;;;;;;;11.63;8.97;;;19.20;99.90;;;;;;5063450;28;20850;-71
2021/07/12 03:15:21;;;;;;;14.20;10.70;;;19.00;99.90;;;;;;5036536;28;20566;-72
2021/07/12 03:17:51;;;;;;;14.23;11.00;;;18.80;99.90;;;;;;5036200;28;20505;-71
2021/07/12 03:20:19;;;;;;;15.23;10.33;;;18.80;99.90;;;;;;5038573;28;20555;-71
2021/07/12 03:22:50;;;;;;;17.07;12.13;;;18.90;99.90;;;;;;5031519;28;20483;-70
2021/07/12 03:25:22;;;;;;;16.97;13.60;;;19.00;99.90;;;;;;5032573;28;20558;-71
2021/07/12 03:27:52;;;;;;;16.60;11.73;;;19.10;99.90;;;;;;5038335;28;20456;-70
2021/07/12 03:30:20;;;;;;;15.63;11.33;;;19.10;99.90;;;;;;5028825;28;20982;-70
2021/07/12 03:32:48;;;;;;;24.40;13.77;;;19.00;99.90;;;;;;5035501;28;20596;-70
2021/07/12 03:35:17;;;;;;;22.07;11.90;;;19.00;99.90;;;;;;5036795;28;20592;-70
2021/07/12 03:37:44;;;;;;;16.77;11.73;;;19.00;99.90;;;;;;5042787;28;20534;-71
2021/07/12 03:40:13;;;;;;;29.37;14.30;;;19.00;99.90;;;;;;5038173;28;20478;-69
2021/07/12 03:42:40;;;;;;;16.30;12.23;;;19.00;99.90;;;;;;5034869;28;20554;-70
2021/07/12 03:45:11;;;;;;;16.03;11.63;;;19.00;99.90;;;;;;5031653;28;20461;-71
2021/07/12 03:47:39;;;;;;;18.73;12.30;;;18.90;99.90;;;;;;5031124;28;20470;-70
2021/07/12 03:50:11;;;;;;;19.63;12.90;;;18.90;99.90;;;;;;5039380;28;20492;-70
2021/07/12 03:52:44;;;;;;;16.97;11.77;;;18.90;99.90;;;;;;5039070;28;20484;-69
2021/07/12 03:55:13;;;;;;;17.00;11.40;;;18.80;99.90;;;;;;5063263;28;20499;-73
2021/07/12 03:57:41;;;;;;;15.80;11.63;;;18.80;99.90;;;;;;5054966;28;20450;-72
2021/07/12 04:00:12;;;;;;;15.63;10.27;;;18.70;99.90;;;;;;5032348;28;20460;-74
2021/07/12 04:02:39;;;;;;;15.30;11.80;;;18.60;99.90;;;;;;5026473;28;25197;-72
2021/07/12 04:05:08;;;;;;;15.20;11.37;;;18.70;99.90;;;;;;5036673;28;20910;-68
2021/07/12 04:07:35;;;;;;;18.83;11.80;;;18.60;99.90;;;;;;5037390;28;20440;-70
2021/07/12 04:10:02;;;;;;;18.33;12.60;;;18.60;99.90;;;;;;5032073;28;21002;-70
2021/07/12 04:12:28;;;;;;;18.13;12.57;;;18.90;99.90;;;;;;5032371;28;20586;-71
2021/07/12 04:14:57;;;;;;;13.60;10.10;;;19.00;99.90;;;;;;5036390;28;20907;-73
2021/07/12 04:17:25;;;;;;;21.87;11.93;;;19.10;99.90;;;;;;5036493;28;20459;-73
2021/07/12 04:19:53;;;;;;;19.93;12.10;;;19.20;99.90;;;;;;5041534;28;20530;-71
2021/07/12 04:22:20;;;;;;;15.53;10.93;;;19.20;99.90;;;;;;5038042;28;21010;-72
2021/07/12 04:24:47;;;;;;;14.93;10.83;;;19.20;99.90;;;;;;5040232;28;20452;-72
2021/07/12 04:27:14;;;;;;;16.17;11.77;;;19.30;99.90;;;;;;5036194;28;20495;-73
2021/07/12 04:29:41;;;;;;;18.07;12.17;;;19.20;99.90;;;;;;5039757;28;20586;-72
2021/07/12 04:32:09;;;;;;;14.23;11.43;;;19.10;99.90;;;;;;5037137;28;20932;-72
2021/07/12 04:34:37;;;;;;;16.67;11.13;;;19.00;99.90;;;;;;5037575;28;20488;-77
2021/07/12 04:37:04;;;;;;;15.40;11.27;;;19.10;99.90;;;;;;5044128;28;20499;-76
2021/07/12 04:39:32;;;;;;;15.83;11.50;;;19.10;99.90;;;;;;5060257;28;20502;-72
2021/07/12 04:41:59;;;;;;;18.57;12.03;;;19.00;99.90;;;;;;5035730;28;20478;-74
2021/07/12 04:44:26;;;;;;;13.77;9.87;;;19.10;99.90;;;;;;5037676;28;20490;-72
2021/07/12 04:46:53;;;;;;;17.30;12.50;;;19.00;99.90;;;;;;5037155;28;20506;-71
2021/07/12 04:49:20;;;;;;;18.30;12.37;;;19.00;99.90;;;;;;5034692;28;20460;-71
2021/07/12 04:51:49;;;;;;;12.00;9.60;;;19.20;99.90;;;;;;5036908;28;20483;-76
2021/07/12 04:54:17;;;;;;;17.70;12.20;;;19.30;99.90;;;;;;5029645;28;20467;-75
2021/07/12 04:56:44;;;;;;;14.77;9.77;;;19.40;99.90;;;;;;5042436;28;20448;-70
2021/07/12 04:59:11;;;;;;;14.37;9.80;;;19.30;99.90;;;;;;5044033;28;20531;-73
2021/07/12 05:01:39;;;;;;;11.17;9.93;;;19.50;99.90;;;;;;5046982;28;20466;-71
2021/07/12 05:04:07;;;;;;;13.00;10.53;;;19.70;99.90;;;;;;5044043;28;20456;-72
2021/07/12 05:06:34;;;;;;;15.40;10.37;;;19.70;99.90;;;;;;5043829;28;20451;-74
2021/07/12 05:09:04;;;;;;;13.40;10.03;;;19.80;99.90;;;;;;5045081;28;20439;-71
2021/07/12 05:11:32;;;;;;;17.73;9.13;;;20.00;99.90;;;;;;5048428;28;20566;-72
2021/07/12 05:14:01;;;;;;;12.53;9.40;;;20.10;99.90;;;;;;5047511;28;20546;-71
2021/07/12 05:16:28;;;;;;;14.20;9.73;;;20.00;99.90;;;;;;5039603;28;20841;-74
2021/07/12 05:18:57;;;;;;;16.00;9.57;;;20.00;99.90;;;;;;5048951;28;20530;-73
2021/07/12 05:21:24;;;;;;;17.53;9.27;;;20.10;99.90;;;;;;5065783;28;20437;-73
2021/07/12 05:23:51;;;;;;;15.10;10.20;;;20.30;99.90;;;;;;5061150;28;20924;-71
2021/07/12 05:26:20;;;;;;;16.90;9.97;;;20.50;99.90;;;;;;5047601;28;20495;-73
2021/07/12 05:28:48;;;;;;;10.47;9.37;;;20.70;99.90;;;;;;5047052;28;20484;-73
2021/07/12 05:31:15;;;;;;;13.13;9.30;;;20.60;99.90;;;;;;5047461;28;20562;-78
2021/07/12 05:33:42;;;;;;;12.80;8.57;;;20.60;99.90;;;;;;5045908;28;20487;-72
2021/07/12 05:36:09;;;;;;;10.50;9.50;;;20.70;99.90;;;;;;5049816;28;20530;-74
2021/07/12 05:38:36;;;;;;;12.20;10.23;;;20.70;99.90;;;;;;5041353;28;20510;-72
2021/07/12 05:41:03;;;;;;;17.13;10.30;;;20.70;99.90;;;;;;5049469;28;20440;-71
2021/07/12 05:43:31;;;;;;;19.97;10.60;;;20.90;99.90;;;;;;5048019;28;20569;-72
2021/07/12 05:45:58;;;;;;;12.97;10.10;;;21.00;99.90;;;;;;5042524;28;20587;-71
2021/07/12 05:48:25;;;;;;;12.33;9.00;;;21.20;99.90;;;;;;5045724;28;20534;-73
2021/07/12 05:50:52;;;;;;;15.40;9.00;;;21.40;99.90;;;;;;5046208;28;20475;-71
2021/07/12 05:53:19;;;;;;;15.43;8.87;;;21.50;99.90;;;;;;5044688;28;20507;-70
2021/07/12 05:55:47;;;;;;;10.00;8.87;;;21.80;99.90;;;;;;5045365;28;20571;-70
2021/07/12 05:58:13;;;;;;;14.13;9.53;;;21.80;99.90;;;;;;5039274;28;20987;-72
2021/07/12 06:00:42;;;;;;;11.83;8.80;;;21.70;99.90;;;;;;5046234;28;20520;-72
2021/07/12 06:03:09;;;;;;;16.70;10.20;;;21.50;99.90;;;;;;5050542;28;20468;-73
2021/07/12 06:05:36;;;;;;;12.80;9.63;;;21.50;99.90;;;;;;5069543;28;20436;-70
2021/07/12 06:08:04;;;;;;;15.00;9.27;;;21.70;99.90;;;;;;5048559;28;20753;-75
2021/07/12 06:10:31;;;;;;;12.93;9.27;;;22.00;99.90;;;;;;5042941;28;20587;-70
2021/07/12 06:12:58;;;;;;;22.60;9.53;;;22.20;99.90;;;;;;5043950;28;20574;-73
2021/07/12 06:15:25;;;;;;;14.13;9.90;;;22.20;99.90;;;;;;5044773;28;20521;-70
2021/07/12 06:17:53;;;;;;;13.83;10.30;;;22.40;99.90;;;;;;5037247;28;20557;-70
2021/07/12 06:20:20;;;;;;;12.10;9.30;;;22.30;99.90;;;;;;5046818;28;20899;-72
2021/07/12 06:22:49;;;;;;;11.83;9.50;;;22.40;99.90;;;;;;5038263;28;20548;-70
2021/07/12 06:25:20;;;;;;;9.50;8.17;;;22.70;99.90;;;;;;5044498;28;20546;-71
2021/07/12 06:27:48;;;;;;;11.60;8.20;;;23.10;99.90;;;;;;5044455;28;20535;-74
2021/07/12 06:30:17;;;;;;;11.23;8.43;;;23.30;99.90;;;;;;5044503;28;20479;-70
2021/07/12 06:32:44;;;;;;;12.07;8.43;;;23.20;99.90;;;;;;5045195;28;20489;-70
2021/07/12 06:35:14;;;;;;;12.27;7.87;;;23.20;99.90;;;;;;5046074;28;20940;-71
2021/07/12 06:37:41;;;;;;;10.37;8.57;;;23.50;99.90;;;;;;5046623;28;20546;-72
2021/07/12 06:40:09;;;;;;;12.97;9.40;;;23.60;99.90;;;;;;5049717;28;20526;-71
2021/07/12 06:42:36;;;;;;;12.37;8.17;;;24.10;99.90;;;;;;5038738;28;20566;-73
2021/07/12 06:45:04;;;;;;;9.80;8.40;;;24.30;99.90;;;;;;5044917;28;21052;-72
2021/07/12 06:47:31;;;;;;;10.27;7.80;;;24.40;99.90;;;;;;5059704;28;20452;-76
2021/07/12 06:49:58;;;;;;;10.77;7.00;;;24.80;99.90;;;;;;5068472;28;20448;-70
2021/07/12 06:52:26;;;;;;;8.90;7.00;;;24.80;99.90;;;;;;5047029;28;20598;-72
2021/07/12 06:54:53;;;;;;;9.93;6.70;;;25.20;99.90;;;;;;5043613;28;20453;-73
2021/07/12 06:57:20;;;;;;;8.07;7.27;;;25.00;99.90;;;;;;5040800;28;20538;-72
2021/07/12 06:59:50;;;;;;;9.30;7.50;;;25.10;99.90;;;;;;5044990;28;20448;-69
2021/07/12 07:02:17;;;;;;;9.70;6.90;;;25.40;99.90;;;;;;5044636;28;20975;-72
2021/07/12 07:04:44;;;;;;;13.70;7.37;;;25.50;99.90;;;;;;5046754;28;20599;-71
2021/07/12 07:07:11;;;;;;;14.20;7.90;;;25.70;99.90;;;;;;5048164;28;20558;-74
2021/07/12 07:09:39;;;;;;;11.67;7.20;;;25.70;99.90;;;;;;5048718;28;20451;-71
2021/07/12 07:12:07;;;;;;;7.23;6.53;;;25.70;99.90;;;;;;5044929;28;20606;-71
2021/07/12 07:14:33;;;;;;;6.20;5.60;;;25.70;99.90;;;;;;5050012;28;21024;-71
2021/07/12 07:17:00;;;;;;;7.17;6.40;;;25.80;99.90;;;;;;5048369;28;20971;-73
2021/07/12 07:19:27;;;;;;;7.13;6.43;;;25.90;99.90;;;;;;5048570;28;20483;-71
2021/07/12 07:21:54;;;;;;;9.03;5.90;;;25.50;99.90;;;;;;5041235;28;20480;-72
2021/07/12 07:24:22;;;;;;;7.70;6.70;;;25.50;99.90;;;;;;5045868;28;20465;-73
2021/07/12 07:26:50;;;;;;;7.20;6.20;;;25.70;99.90;;;;;;5047863;28;20443;-73
2021/07/12 07:29:20;;;;;;;6.03;5.50;;;26.30;99.90;;;;;;5043263;28;20446;-71
2021/07/12 07:31:47;;;;;;;7.80;6.03;;;26.60;99.90;;;;;;5058200;28;20483;-78
2021/07/12 07:34:14;;;;;;;8.20;6.00;;;26.60;99.90;;;;;;5061408;28;20491;-71
2021/07/12 07:36:42;;;;;;;5.70;5.17;;;26.80;99.90;;;;;;5047793;28;20578;-73
2021/07/12 07:39:09;;;;;;;8.70;5.23;;;27.20;99.90;;;;;;5043378;28;20555;-71
2021/07/12 07:41:37;;;;;;;7.63;5.47;;;27.20;99.90;;;;;;5046780;28;20549;-71
2021/07/12 07:44:05;;;;;;;6.43;5.83;;;28.10;99.90;;;;;;5047383;28;20439;-73
2021/07/12 07:46:32;;;;;;;6.30;5.70;;;28.70;99.90;;;;;;5046580;28;20524;-71
2021/07/12 07:49:00;;;;;;;8.10;5.37;;;28.50;99.90;;;;;;5054794;28;20443;-72
2021/07/12 07:51:27;;;;;;;7.17;5.53;;;28.30;99.90;;;;;;5067023;28;20523;-76
2021/07/12 07:53:54;;;;;;;5.90;5.40;;;28.50;99.90;;;;;;5054528;28;20440;-74
2021/07/12 07:56:21;;;;;;;5.63;5.13;;;28.80;99.90;;;;;;5057345;28;20511;-71
2021/07/12 07:58:48;;;;;;;5.20;4.70;;;29.00;99.90;;;;;;5059941;28;20448;-76
2021/07/12 08:01:16;;;;;;;8.03;4.97;;;29.20;99.90;;;;;;5057738;28;20452;-74
2021/07/12 08:03:43;;;;;;;5.20;4.70;;;29.20;99.90;;;;;;5060480;28;20479;-76
2021/07/12 08:06:10;;;;;;;5.23;4.73;;;29.50;99.90;;;;;;5064063;28;20505;-75
2021/07/12 08:08:37;;;;;;;5.80;5.30;;;29.80;99.90;;;;;;5066209;28;20436;-77
2021/07/12 08:11:05;;;;;;;5.70;4.60;;;29.40;99.90;;;;;;5067669;28;20475;-75
2021/07/12 08:13:32;;;;;;;5.13;4.63;;;29.80;99.90;;;;;;5063791;28;20479;-72
2021/07/12 08:15:59;;;;;;;4.90;4.40;;;30.70;99.90;;;;;;5064446;28;20448;-72
2021/07/12 08:18:27;;;;;;;4.30;3.90;;;31.30;99.90;;;;;;5064096;28;20452;-74
2021/07/12 08:20:54;;;;;;;7.60;4.90;;;31.70;99.90;;;;;;5043001;28;20480;-71
2021/07/12 08:23:23;;;;;;;7.33;4.30;;;30.90;99.90;;;;;;5045770;28;20856;-75
2021/07/12 08:25:50;;;;;;;5.67;5.17;;;30.10;99.90;;;;;;5044768;28;20463;-72
2021/07/12 08:28:17;;;;;;;5.87;5.20;;;29.50;99.90;;;;;;5048225;28;20550;-73
2021/07/12 08:30:45;;;;;;;7.10;4.93;;;29.00;99.90;;;;;;5047496;28;20578;-72
2021/07/12 08:33:12;;;;;;;7.20;5.10;;;29.20;99.90;;;;;;5044270;28;20479;-74
2021/07/12 08:35:40;;;;;;;8.17;5.07;;;29.50;99.90;;;;;;5048139;28;20459;-72
2021/07/12 08:38:07;;;;;;;4.13;3.83;;;29.60;99.90;;;;;;5045692;28;20451;-71
2021/07/12 08:40:35;;;;;;;7.37;6.67;;;30.20;99.90;;;;;;5046612;28;20502;-72
2021/07/12 08:43:02;;;;;;;5.13;4.30;;;29.90;99.90;;;;;;5045775;28;20507;-72
2021/07/12 08:45:29;;;;;;;6.20;5.07;;;29.30;99.90;;;;;;5049185;28;20493;-73
2021/07/12 08:47:56;;;;;;;6.00;5.23;;;29.20;99.90;;;;;;5049995;28;20569;-72
2021/07/12 08:50:26;;;;;;;6.10;5.50;;;29.00;99.90;;;;;;5046500;28;20563;-74
2021/07/12 08:52:55;;;;;;;5.70;5.20;;;29.30;99.90;;;;;;5044640;28;20567;-72
2021/07/12 08:55:22;;;;;;;5.57;4.47;;;29.90;99.90;;;;;;5046742;28;20505;-72
2021/07/12 08:58:11;;;;;;;6.63;5.00;;;30.20;99.90;;;;;;5047206;28;20519;-73
2021/07/12 09:00:45;;;;;;;4.80;4.30;;;30.30;99.90;;;;;;5038610;28;20464;-72
2021/07/12 09:03:22;;;;;;;6.83;5.43;;;30.60;99.90;;;;;;5068949;28;20482;-78
2021/07/12 09:06:01;;;;;;;7.07;4.57;;;30.50;99.90;;;;;;5054404;28;20534;-71
2021/07/12 09:08:47;;;;;;;8.20;5.80;;;31.10;99.90;;;;;;5044681;28;20455;-72
2021/07/12 09:11:20;;;;;;;4.60;4.10;;;31.40;99.90;;;;;;5046790;28;20479;-73
2021/07/12 09:13:56;;;;;;;5.43;4.93;;;31.70;99.90;;;;;;5048213;28;20487;-77
2021/07/12 09:16:36;;;;;;;6.10;5.37;;;31.40;99.90;;;;;;5049546;28;20439;-72
2021/07/12 09:19:16;;;;;;;5.50;5.00;;;30.90;99.90;;;;;;5044547;28;20483;-74
2021/07/12 09:21:45;;;;;;;6.30;5.70;;;31.20;99.90;;;;;;5041029;28;20513;-73
2021/07/12 09:24:16;;;;;;;6.10;5.23;;;32.30;99.90;;;;;;5043042;28;22333;-73
2021/07/12 09:26:44;;;;;;;5.13;4.73;;;32.50;99.90;;;;;;5043763;28;20431;-72
2021/07/12 09:29:16;;;;;;;5.20;4.70;;;31.80;99.90;;;;;;5048048;28;20486;-72
2021/07/12 09:31:43;;;;;;;5.30;4.73;;;31.90;99.90;;;;;;5046538;28;20859;-72
2021/07/12 09:34:11;;;;;;;7.70;6.83;;;32.70;99.90;;;;;;5047903;28;20467;-74
2021/07/12 09:36:38;;;;;;;11.00;5.37;;;32.50;99.40;;;;;;5044677;28;20542;-73
2021/07/12 09:39:23;;;;;;;5.47;4.90;;;32.60;99.90;;;;;;5037347;28;20899;-73
2021/07/12 09:41:52;;;;;;;6.33;5.73;;;32.30;99.10;;;;;;5042536;28;20484;-74
2021/07/12 09:44:20;;;;;;;6.07;5.47;;;32.30;99.80;;;;;;5049674;28;20733;-72
2021/07/12 09:46:47;;;;;;;6.00;5.40;;;32.70;98.40;;;;;;5048015;28;20554;-73
2021/07/12 09:49:16;;;;;;;5.37;3.97;;;33.40;98.20;;;;;;5048132;28;20438;-72
2021/07/12 09:51:44;;;;;;;5.33;4.80;;;33.40;96.30;;;;;;5071116;28;20483;-74
2021/07/12 09:54:31;;;;;;;5.70;4.33;;;33.40;97.10;;;;;;5053590;28;20479;-72
2021/07/12 09:57:05;;;;;;;4.93;4.40;;;33.80;96.10;;;;;;5047255;28;20462;-74
2021/07/12 09:59:32;;;;;;;5.57;5.07;;;33.00;97.20;;;;;;5048186;28;20456;-72
2021/07/12 10:02:00;;;;;;;4.67;4.20;;;33.50;96.90;;;;;;5046363;28;20479;-73
2021/07/12 10:04:27;;;;;;;5.40;4.40;;;34.60;94.40;;;;;;5047419;28;20463;-72
2021/07/12 10:06:55;;;;;;;4.90;4.50;;;34.70;92.90;;;;;;5048704;28;22204;-72
2021/07/12 10:09:24;;;;;;;5.00;4.60;;;34.90;92.10;;;;;;5048886;28;20899;-72
2021/07/12 10:11:52;;;;;;;7.00;4.20;;;34.10;91.80;;;;;;5050997;28;20606;-76
2021/07/12 10:14:19;;;;;;;4.73;4.17;;;34.40;91.00;;;;;;5042563;28;20554;-75
2021/07/12 10:16:47;;;;;;;4.27;3.90;;;34.30;93.40;;;;;;5042266;28;20470;-69
2021/07/12 10:19:14;;;;;;;5.03;4.30;;;34.10;90.20;;;;;;5046779;28;20539;-74
2021/07/12 10:21:50;;;;;;;4.50;4.10;;;33.70;92.40;;;;;;5045362;28;20460;-71
2021/07/12 10:24:18;;;;;;;4.37;3.97;;;34.20;91.70;;;;;;5049137;28;20630;-70
2021/07/12 10:26:57;;;;;;;4.43;4.00;;;34.70;89.40;;;;;;5048363;28;20444;-71
2021/07/12 10:29:35;;;;;;;4.50;4.10;;;35.80;87.80;;;;;;5045526;28;20649;-72
2021/07/12 10:32:09;;;;;;;3.93;3.53;;;36.10;84.90;;;;;;5049171;28;20587;-75
2021/07/12 10:34:38;;;;;;;4.23;3.80;;;35.80;84.50;;;;;;5049529;28;20513;-71
2021/07/12 10:37:22;;;;;;;3.50;3.20;;;35.40;83.80;;;;;;5051950;28;20443;-73
2021/07/12 10:40:19;;;;;;;4.60;4.20;;;35.50;85.50;;;;;;5065820;28;20464;-76
2021/07/12 10:42:55;;;;;;;4.13;3.80;;;35.20;85.00;;;;;;5065196;28;20534;-72
2021/07/12 10:45:37;;;;;;;3.93;3.63;;;35.40;84.00;;;;;;5048491;28;20447;-73
2021/07/12 10:48:08;;;;;;;3.47;3.17;;;35.90;83.80;;;;;;5048933;28;20476;-75
2021/07/12 10:50:53;;;;;;;4.30;3.63;;;36.50;84.00;;;;;;5045899;28;20452;-75
2021/07/12 10:53:39;;;;;;;3.90;3.60;;;37.60;78.90;;;;;;5047130;28;20574;-70
2021/07/12 10:56:21;;;;;;;5.90;3.73;;;37.00;74.60;;;;;;5045265;28;20531;-72
2021/07/12 10:58:52;;;;;;;6.37;4.40;;;34.00;78.80;;;;;;5043470;28;20451;-72
2021/07/12 11:01:42;;;;;;;5.60;4.00;;;33.30;82.10;;;;;;5046936;28;20491;-71
2021/07/12 11:04:38;;;;;;;3.87;3.43;;;33.40;86.80;;;;;;5051372;28;20456;-77
2021/07/12 11:07:10;;;;;;;3.80;3.50;;;33.90;86.50;;;;;;5051358;28;20521;-73
2021/07/12 11:09:47;;;;;;;6.67;3.87;;;34.00;82.20;;;;;;5055388;28;20537;-73
2021/07/12 11:12:36;;;;;;;5.30;3.90;;;35.00;83.10;;;;;;5044881;28;20592;-73
2021/07/12 11:15:16;;;;;;;4.87;3.77;;;36.60;76.10;;;;;;5045285;28;20647;-72
2021/07/12 11:17:57;;;;;;;4.07;3.73;;;36.70;74.90;;;;;;5041385;28;20508;-71
2021/07/12 11:20:44;;;;;;;3.80;3.50;;;36.70;73.40;;;;;;5049326;28;20473;-72
2021/07/12 11:23:34;;;;;;;3.70;3.40;;;37.10;70.50;;;;;;5049597;28;20980;-71
2021/07/12 11:26:02;;;;;;;9.87;4.10;;;36.40;73.30;;;;;;5048847;28;20531;-73
2021/07/12 11:28:43;;;;;;;4.07;3.70;;;36.00;74.00;;;;;;5048048;28;20876;-72
2021/07/12 11:31:42;;;;;;;3.90;3.17;;;35.60;72.50;;;;;;5046171;28;20467;-74
2021/07/12 11:34:14;;;;;;;4.07;3.67;;;35.90;75.90;;;;;;5049587;28;20439;-72
2021/07/12 11:36:47;;;;;;;3.30;3.00;;;36.50;72.40;;;;;;5048546;28;20530;-71
2021/07/12 11:39:15;;;;;;;4.03;3.67;;;35.80;74.30;;;;;;5050165;28;20555;-71
2021/07/12 11:41:42;;;;;;;3.77;3.47;;;36.60;71.80;;;;;;5027105;28;20538;-72
2021/07/12 11:44:10;;;;;;;3.80;3.50;;;37.50;73.00;;;;;;5045861;28;20524;-75
2021/07/12 11:46:37;;;;;;;3.50;3.20;;;37.90;70.70;;;;;;5042000;28;20546;-75
2021/07/12 11:49:09;;;;;;;4.03;3.73;;;38.20;66.60;;;;;;5046276;28;20440;-71
2021/07/12 11:51:37;;;;;;;4.07;3.57;;;38.20;62.70;;;;;;5045525;28;20472;-72
2021/07/12 11:54:13;;;;;;;4.03;3.67;;;37.70;65.70;;;;;;5043278;28;20550;-71
2021/07/12 11:56:41;;;;;;;5.13;3.37;;;36.90;65.10;;;;;;5049858;28;21975;-71
2021/07/12 11:59:08;;;;;;;3.73;3.43;;;36.50;67.60;;;;;;5052993;28;20527;-73
2021/07/12 12:01:35;;;;;;;4.60;3.83;;;36.80;64.70;;;;;;5046637;28;20498;-73
2021/07/12 12:04:04;;;;;;;4.90;3.27;;;36.10;67.10;;;;;;5046829;28;20483;-72
2021/07/12 12:06:32;;;;;;;4.33;3.93;;;35.10;67.00;;;;;;5050820;28;20447;-72
2021/07/12 12:09:00;;;;;;;11.10;3.60;;;34.40;67.90;;;;;;5048115;28;20528;-71
2021/07/12 12:11:29;;;;;;;3.90;3.50;;;32.70;73.20;;;;;;5046126;28;20458;-73
2021/07/12 12:13:56;;;;;;;4.10;3.10;;;32.20;74.20;;;;;;5045723;28;20964;-75
2021/07/12 12:16:28;;;;;;;3.43;3.13;;;32.00;75.20;;;;;;5049098;28;20442;-73
2021/07/12 12:18:55;;;;;;;5.60;3.90;;;32.10;74.30;;;;;;5049291;28;20440;-71
2021/07/12 12:21:24;;;;;;;3.57;3.00;;;32.40;78.70;;;;;;5046667;28;20547;-75
2021/07/12 12:23:53;;;;;;;7.63;3.27;;;32.20;77.30;;;;;;5043064;28;20460;-73
2021/07/12 12:26:27;;;;;;;3.73;3.40;;;32.10;79.70;;;;;;5046444;28;20454;-73
2021/07/12 12:28:56;;;;;;;2.90;2.60;;;32.30;77.70;;;;;;5046550;28;20470;-72
2021/07/12 12:31:26;;;;;;;3.80;3.40;;;32.50;75.30;;;;;;5044542;28;20467;-73
2021/07/12 12:33:58;;;;;;;2.67;2.47;;;32.00;75.40;;;;;;5044316;28;20491;-73
2021/07/12 12:36:27;;;;;;;2.90;2.60;;;31.30;77.20;;;;;;5047454;28;20462;-76
2021/07/12 12:38:59;;;;;;;3.63;2.80;;;31.30;79.70;;;;;;5048835;28;20459;-78
2021/07/12 12:41:28;;;;;;;3.17;2.87;;;31.10;77.30;;;;;;5045688;28;20904;-76
2021/07/12 12:44:01;;;;;;;3.73;3.37;;;31.20;79.10;;;;;;5049367;28;20436;-72
2021/07/12 12:46:29;;;;;;;8.53;3.40;;;31.00;82.20;;;;;;5044744;28;20455;-71
2021/07/12 12:48:58;;;;;;;3.03;2.73;;;30.90;80.80;;;;;;5048616;28;20442;-72
2021/07/12 12:51:31;;;;;;;5.30;4.23;;;31.10;80.50;;;;;;5048356;28;20845;-72
2021/07/12 12:54:13;;;;;;;11.50;6.70;;;31.30;82.60;;;;;;5045834;28;20489;-72